Time;durP1;ratioP1;P1;durP2;ratioP2;P2;SDS_P1;SDS_P2;PMS_P1;PMS_P2;Temp;Humidity;BMP_temperature;BMP_pressure;BME280_temperature;BME280_humidity;BME280_pressure;Samples;Min_cycle;Max_cycle;Signal;HPM_P1;HPM_P2
2022/05/20 00:02:48;;;;;;;4.65;2.00;;;;;;;;;;10404970;28;20295;-71
2022/05/20 00:07:49;;;;;;;5.05;2.00;;;;;;;;;;10399965;28;20512;-70
2022/05/20 00:12:49;;;;;;;4.10;1.70;;;;;;;;;;10403294;28;20071;-75
2022/05/20 00:17:50;;;;;;;1.48;1.38;;;;;;;;;;10403596;28;20033;-71
2022/05/20 00:22:50;;;;;;;3.47;1.70;;;;;;;;;;10403258;28;20032;-70
2022/05/20 00:27:51;;;;;;;1.93;1.37;;;;;;;;;;10403662;28;20079;-71
2022/05/20 00:32:52;;;;;;;4.23;1.37;;;;;;;;;;10403503;28;20496;-74
2022/05/20 00:37:52;;;;;;;2.13;1.40;;;;;;;;;;10386506;28;20053;-76
2022/05/20 00:43:01;;;;;;;4.53;1.45;;;;;;;;;;10402382;28;20112;-75
2022/05/20 00:48:01;;;;;;;2.20;1.73;;;;;;;;;;10402169;28;20040;-71
2022/05/20 00:53:02;;;;;;;3.72;1.75;;;;;;;;;;10399040;28;20032;-71
2022/05/20 00:58:07;;;;;;;3.05;2.58;;;;;;;;;;10402195;28;20024;-71
2022/05/20 01:03:09;;;;;;;1.58;1.38;;;;;;;;;;10399273;28;20048;-78
2022/05/20 01:08:12;;;;;;;3.05;1.92;;;;;;;;;;10401973;28;20025;-74
2022/05/20 01:13:14;;;;;;;2.47;1.85;;;;;;;;;;10401210;28;20063;-77
2022/05/20 01:18:15;;;;;;;7.13;1.55;;;;;;;;;;10402005;28;20550;-75
2022/05/20 01:23:17;;;;;;;2.55;1.80;;;;;;;;;;10402036;28;20531;-70
2022/05/20 01:28:18;;;;;;;2.13;1.77;;;;;;;;;;10384510;28;20061;-70
2022/05/20 01:33:21;;;;;;;2.03;1.40;;;;;;;;;;10397535;28;20039;-70
2022/05/20 01:38:21;;;;;;;9.25;1.50;;;;;;;;;;10403486;28;20541;-71
2022/05/20 01:43:25;;;;;;;6.10;2.00;;;;;;;;;;10400315;28;20025;-70
2022/05/20 01:48:28;;;;;;;1.63;1.50;;;;;;;;;;10400409;28;20235;-75
2022/05/20 01:53:40;;;;;;;1.77;1.50;;;;;;;;;;10400008;28;20397;-70
2022/05/20 01:58:43;;;;;;;1.60;1.50;;;;;;;;;;10401423;28;20520;-73
2022/05/20 02:03:50;;;;;;;3.92;1.70;;;;;;;;;;10400344;28;20510;-74
2022/05/20 02:08:57;;;;;;;2.92;1.40;;;;;;;;;;10400345;28;20112;-72
2022/05/20 02:14:13;;;;;;;4.68;1.20;;;;;;;;;;10397591;28;20789;-70
2022/05/20 02:19:16;;;;;;;2.88;1.40;;;;;;;;;;10398981;28;20021;-76
2022/05/20 02:24:19;;;;;;;2.88;1.85;;;;;;;;;;10401354;28;20025;-76
2022/05/20 02:29:22;;;;;;;1.98;1.23;;;;;;;;;;10382960;28;20057;-71
2022/05/20 02:34:22;;;;;;;3.35;1.95;;;;;;;;;;10401435;28;20545;-75
2022/05/20 02:39:22;;;;;;;3.47;1.77;;;;;;;;;;10401601;28;20024;-72
2022/05/20 02:44:22;;;;;;;2.55;2.35;;;;;;;;;;10401513;28;20049;-72
2022/05/20 02:49:23;;;;;;;2.47;1.60;;;;;;;;;;10401147;28;20396;-72
2022/05/20 02:54:23;;;;;;;6.43;1.70;;;;;;;;;;10400662;28;20018;-72
2022/05/20 03:04:43;;;;;;;3.10;1.98;;;;;;;;;;10410221;28;20022;-73
2022/05/20 03:09:43;;;;;;;2.30;1.77;;;;;;;;;;10408746;28;20022;-72
2022/05/20 03:14:43;;;;;;;9.20;1.43;;;;;;;;;;10408182;28;20477;-73
2022/05/20 03:19:44;;;;;;;5.90;2.05;;;;;;;;;;10408440;28;20316;-72
2022/05/20 03:24:44;;;;;;;7.90;2.60;;;;;;;;;;10408659;28;20022;-75
2022/05/20 03:29:45;;;;;;;5.22;2.70;;;;;;;;;;10407884;28;20463;-75
2022/05/20 03:34:45;;;;;;;3.25;2.10;;;;;;;;;;10408631;28;20476;-71
2022/05/20 03:39:46;;;;;;;4.25;1.45;;;;;;;;;;10408795;28;20029;-72
2022/05/20 03:44:46;;;;;;;3.08;1.48;;;;;;;;;;10408700;28;20021;-72
2022/05/20 03:49:46;;;;;;;7.05;2.20;;;;;;;;;;10407403;28;20017;-72
2022/05/20 03:54:46;;;;;;;4.17;2.40;;;;;;;;;;10407075;28;20033;-71
2022/05/20 03:59:47;;;;;;;1.80;1.52;;;;;;;;;;10406531;28;20806;-72
2022/05/20 04:04:51;;;;;;;4.20;1.90;;;;;;;;;;10407823;28;20025;-73
2022/05/20 04:09:51;;;;;;;4.85;2.20;;;;;;;;;;10408190;28;20509;-77
2022/05/20 04:14:52;;;;;;;4.47;2.67;;;;;;;;;;10405434;28;20029;-74
2022/05/20 04:19:53;;;;;;;2.63;2.13;;;;;;;;;;10405029;28;20029;-77
2022/05/20 04:24:55;;;;;;;2.13;1.40;;;;;;;;;;10407350;28;20104;-73
2022/05/20 04:29:56;;;;;;;3.80;1.88;;;;;;;;;;10405248;28;20122;-73
2022/05/20 04:34:56;;;;;;;3.22;1.52;;;;;;;;;;10405956;28;20057;-72
2022/05/20 04:39:56;;;;;;;3.13;1.90;;;;;;;;;;10404235;28;20026;-72
2022/05/20 04:50:15;;;;;;;;;;;;;;;;;;10404409;28;20021;-75
2022/05/20 04:55:15;;;;;;;4.13;2.40;;;;;;;;;;10403780;28;19909;-71
2022/05/20 05:00:22;;;;;;;5.10;2.97;;;;;;;;;;10404055;28;20549;-72
2022/05/20 05:05:24;;;;;;;6.38;2.58;;;;;;;;;;10404474;28;20294;-75
2022/05/20 05:10:27;;;;;;;4.25;2.45;;;;;;;;;;10402152;28;20021;-73
2022/05/20 05:15:28;;;;;;;5.60;3.60;;;;;;;;;;10402741;28;20072;-70
2022/05/20 05:20:29;;;;;;;8.85;3.38;;;;;;;;;;10402295;28;20021;-72
2022/05/20 05:25:31;;;;;;;8.25;3.85;;;;;;;;;;10402949;28;20023;-74
2022/05/20 05:30:32;;;;;;;8.15;2.63;;;;;;;;;;10402890;28;20057;-70
2022/05/20 05:35:32;;;;;;;2.35;1.88;;;;;;;;;;10404478;28;20032;-72
2022/05/20 05:40:33;;;;;;;3.07;1.97;;;;;;;;;;10402080;28;20450;-72
2022/05/20 05:45:34;;;;;;;5.63;1.53;;;;;;;;;;10402123;28;20025;-70
2022/05/20 05:50:36;;;;;;;5.75;2.88;;;;;;;;;;10402127;28;20083;-71
2022/05/20 05:55:36;;;;;;;6.18;2.35;;;;;;;;;;10401786;28;20042;-70
2022/05/20 06:00:37;;;;;;;8.98;1.70;;;;;;;;;;10402178;28;20025;-71
2022/05/20 06:05:37;;;;;;;10.45;3.17;;;;;;;;;;10403424;28;20103;-71
2022/05/20 06:10:38;;;;;;;5.38;2.30;;;;;;;;;;10401880;28;20491;-72
2022/05/20 06:15:38;;;;;;;10.23;2.28;;;;;;;;;;10401515;28;20022;-71
2022/05/20 06:20:39;;;;;;;4.45;2.42;;;;;;;;;;10400959;28;20010;-74
2022/05/20 06:25:41;;;;;;;7.10;2.55;;;;;;;;;;10400933;28;20405;-75
2022/05/20 06:30:42;;;;;;;7.38;2.60;;;;;;;;;;10404736;28;20053;-75
2022/05/20 06:41:01;;;;;;;6.15;3.65;;;;;;;;;;10411538;28;20022;-70
2022/05/20 06:46:03;;;;;;;8.40;3.15;;;;;;;;;;10409463;28;20029;-77
2022/05/20 06:51:04;;;;;;;8.95;3.20;;;;;;;;;;10408900;28;20021;-71
2022/05/20 06:56:04;;;;;;;6.10;2.85;;;;;;;;;;10408729;28;20517;-72
2022/05/20 07:01:05;;;;;;;11.60;3.05;;;;;;;;;;10409969;28;20130;-71
2022/05/20 07:06:07;;;;;;;14.57;4.05;;;;;;;;;;10408708;28;20446;-71
2022/05/20 07:11:07;;;;;;;13.10;3.95;;;;;;;;;;10408813;28;20108;-71
2022/05/20 07:16:07;;;;;;;10.13;3.07;;;;;;;;;;10408523;28;20018;-72
2022/05/20 07:21:08;;;;;;;11.87;3.40;;;;;;;;;;10391716;28;20097;-71
2022/05/20 07:26:08;;;;;;;14.43;3.40;;;;;;;;;;10408947;28;20072;-71
2022/05/20 07:31:09;;;;;;;5.97;2.85;;;;;;;;;;10391489;28;20552;-74
2022/05/20 07:36:09;;;;;;;12.55;3.08;;;;;;;;;;10407349;28;20504;-74
2022/05/20 07:41:10;;;;;;;13.15;3.85;;;;;;;;;;10406711;28;20030;-71
2022/05/20 07:46:10;;;;;;;7.80;3.30;;;;;;;;;;10407099;28;20025;-71
2022/05/20 07:51:15;;;;;;;9.80;3.00;;;;;;;;;;10406705;28;20055;-73
2022/05/20 07:56:17;;;;;;;12.90;3.00;;;;;;;;;;10407786;28;20021;-71
2022/05/20 08:01:19;;;;;;;12.02;2.80;;;;;;;;;;10405938;28;20112;-69
2022/05/20 08:06:19;;;;;;;7.00;2.80;;;;;;;;;;10406448;28;20508;-72
2022/05/20 08:11:20;;;;;;;11.87;4.17;;;;;;;;;;10407669;28;20135;-72
2022/05/20 08:16:20;;;;;;;10.63;3.00;;;;;;;;;;10406129;28;20018;-70
2022/05/20 08:21:20;;;;;;;6.80;2.97;;;;;;;;;;10405840;28;20032;-74
2022/05/20 08:26:21;;;;;;;6.57;3.22;;;;;;;;;;10405399;28;20041;-71
2022/05/20 08:31:22;;;;;;;13.47;3.57;;;;;;;;;;10405682;28;20140;-70
2022/05/20 08:36:22;;;;;;;9.48;2.80;;;;;;;;;;10405217;28;20053;-73
2022/05/20 08:41:27;;;;;;;16.40;3.47;;;;;;;;;;10405307;28;20112;-70
2022/05/20 08:46:28;;;;;;;8.65;3.50;;;;;;;;;;10406005;28;20409;-71
2022/05/20 08:51:30;;;;;;;4.85;1.40;;;;;;;;;;10404780;28;20025;-75
2022/05/20 08:56:30;;;;;;;5.47;1.58;;;;;;;;;;10403387;28;20036;-71
2022/05/20 09:01:33;;;;;;;8.02;2.20;;;;;;;;;;10403581;28;20132;-70
2022/05/20 09:06:40;;;;;;;4.78;2.05;;;;;;;;;;10403958;28;20455;-70
2022/05/20 09:11:42;;;;;;;10.18;1.73;;;;;;;;;;10403427;28;20436;-70
2022/05/20 09:16:53;;;;;;;6.40;2.15;;;;;;;;;;10403709;28;20033;-70
2022/05/20 09:22:14;;;;;;;8.27;1.60;;;;;;;;;;10386875;28;20030;-71
2022/05/20 09:27:19;;;;;;;6.80;2.13;;;;;;;;;;10402944;28;20055;-72
2022/05/20 09:32:33;;;;;;;7.63;2.22;;;;;;;;;;10402597;28;20087;-70
2022/05/20 09:37:34;;;;;;;10.30;1.80;;;;;;;;;;10402725;28;20018;-71
2022/05/20 09:42:35;;;;;;;4.75;2.08;;;;;;;;;;10402535;28;20409;-71
2022/05/20 09:47:47;;;;;;;4.50;1.80;;;;;;;;;;10386379;28;20017;-71
2022/05/20 09:52:51;;;;;;;5.85;1.45;;;;;;;;;;10402016;28;20053;-71
2022/05/20 09:57:53;;;;;;;8.27;2.00;;;;;;;;;;10403251;28;20401;-70
2022/05/20 10:03:14;;;;;;;3.08;1.50;;;;;;;;;;10403445;28;20029;-72
2022/05/20 10:08:21;;;;;;;7.65;1.90;;;;;;;;;;10401834;28;20013;-71
2022/05/20 10:13:31;;;;;;;3.90;1.73;;;;;;;;;;10401929;28;20108;-73
2022/05/20 10:18:38;;;;;;;3.13;1.27;;;;;;;;;;10401496;28;20087;-71
2022/05/20 10:23:51;;;;;;;4.05;1.58;;;;;;;;;;10402189;28;20072;-72
2022/05/20 10:34:26;;;;;;;4.63;1.02;;;;;;;;;;10402303;28;20037;-71
2022/05/20 10:39:46;;;;;;;1.20;1.00;;;;;;;;;;10400813;28;20442;-72
2022/05/20 10:50:33;;;;;;;1.65;1.10;;;;;;;;;;10416898;28;20018;-72
2022/05/20 10:55:36;;;;;;;4.03;1.02;;;;;;;;;;10400760;28;20144;-72
2022/05/20 11:00:46;;;;;;;4.80;0.90;;;;;;;;;;10401993;28;20096;-71
2022/05/20 11:05:46;;;;;;;4.15;1.30;;;;;;;;;;10400741;28;20029;-71
2022/05/20 11:10:55;;;;;;;3.65;1.10;;;;;;;;;;10400358;28;20079;-70
2022/05/20 11:15:56;;;;;;;4.30;1.25;;;;;;;;;;10401291;28;20029;-73
2022/05/20 11:20:58;;;;;;;7.97;2.63;;;;;;;;;;10408147;28;20079;-71
2022/05/20 11:26:17;;;;;;;2.63;1.25;;;;;;;;;;10408325;28;20030;-71
2022/05/20 11:31:27;;;;;;;5.43;1.17;;;;;;;;;;10407405;28;20067;-71
2022/05/20 11:36:33;;;;;;;2.50;0.75;;;;;;;;;;10407616;28;20044;-72
2022/05/20 11:41:46;;;;;;;5.53;0.70;;;;;;;;;;10407248;28;20033;-72
2022/05/20 11:46:49;;;;;;;6.82;1.10;;;;;;;;;;10407567;28;20155;-71
2022/05/20 11:52:06;;;;;;;6.18;1.38;;;;;;;;;;10407410;28;20469;-72
2022/05/20 11:57:08;;;;;;;1.60;1.00;;;;;;;;;;10406525;28;20025;-71
2022/05/20 12:02:11;;;;;;;6.07;1.65;;;;;;;;;;10389612;28;20361;-75
2022/05/20 12:07:13;;;;;;;3.72;1.17;;;;;;;;;;10407936;28;20036;-72
2022/05/20 12:12:22;;;;;;;2.17;1.00;;;;;;;;;;10406474;28;20025;-72
2022/05/20 12:17:34;;;;;;;4.72;1.42;;;;;;;;;;10407355;28;20397;-75
2022/05/20 12:28:07;;;;;;;6.15;1.20;;;;;;;;;;10406716;28;20513;-72
2022/05/20 12:33:27;;;;;;;2.58;1.17;;;;;;;;;;10404947;28;20037;-72
2022/05/20 12:38:28;;;;;;;2.45;0.90;;;;;;;;;;10404945;28;20065;-71
2022/05/20 12:43:54;;;;;;;2.38;1.10;;;;;;;;;;10407583;28;20533;-71
2022/05/20 12:48:55;;;;;;;3.33;1.08;;;;;;;;;;10402820;28;20037;-70
2022/05/20 12:53:55;;;;;;;1.48;0.77;;;;;;;;;;10404144;28;20025;-75
2022/05/20 12:59:17;;;;;;;1.10;0.70;;;;;;;;;;10405855;28;20029;-71
2022/05/20 13:04:19;;;;;;;1.50;1.20;;;;;;;;;;10403697;28;20490;-75
2022/05/20 13:09:21;;;;;;;3.83;1.10;;;;;;;;;;10409771;28;20076;-76
2022/05/20 13:14:25;;;;;;;2.13;0.77;;;;;;;;;;10403552;28;20120;-72
2022/05/20 13:19:33;;;;;;;6.82;1.20;;;;;;;;;;10404138;28;20057;-73
2022/05/20 13:24:35;;;;;;;5.38;0.88;;;;;;;;;;10386945;28;20033;-69
2022/05/20 13:29:36;;;;;;;2.08;0.80;;;;;;;;;;10385732;28;20076;-72
2022/05/20 13:34:36;;;;;;;5.40;0.95;;;;;;;;;;10383052;28;20036;-72
2022/05/20 13:39:36;;;;;;;4.27;1.00;;;;;;;;;;10390861;28;20025;-72
2022/05/20 13:44:39;;;;;;;6.13;1.80;;;;;;;;;;10381079;28;20289;-78
2022/05/20 13:49:39;;;;;;;4.72;0.82;;;;;;;;;;10380663;28;20052;-72
2022/05/20 13:54:45;;;;;;;5.17;1.10;;;;;;;;;;10382522;28;20492;-71
2022/05/20 13:59:49;;;;;;;7.72;0.70;;;;;;;;;;10382820;28;20275;-71
2022/05/20 14:04:49;;;;;;;4.30;1.17;;;;;;;;;;10387896;28;20030;-71
2022/05/20 14:09:54;;;;;;;6.40;1.02;;;;;;;;;;10382218;28;20547;-72
2022/05/20 14:14:58;;;;;;;8.85;1.25;;;;;;;;;;10386311;28;20466;-75
2022/05/20 14:20:08;;;;;;;4.25;0.80;;;;;;;;;;10381787;28;20053;-73
2022/05/20 14:25:14;;;;;;;1.75;0.55;;;;;;;;;;10382641;28;20037;-75
2022/05/20 14:30:30;;;;;;;7.35;1.35;;;;;;;;;;10380598;28;20537;-74
2022/05/20 14:35:34;;;;;;;4.78;0.93;;;;;;;;;;10388239;28;20401;-73
2022/05/20 14:40:37;;;;;;;3.97;0.93;;;;;;;;;;10386233;28;20046;-73
2022/05/20 14:45:39;;;;;;;3.00;0.95;;;;;;;;;;10379912;28;20089;-73
2022/05/20 14:50:44;;;;;;;1.75;1.02;;;;;;;;;;10363192;28;20080;-74
2022/05/20 14:55:48;;;;;;;3.13;1.27;;;;;;;;;;10369919;28;20026;-73
2022/05/20 15:01:04;;;;;;;1.98;0.70;;;;;;;;;;10368022;28;20410;-77
2022/05/20 15:06:04;;;;;;;5.15;1.20;;;;;;;;;;10368366;28;20021;-76
2022/05/20 15:11:14;;;;;;;5.88;1.20;;;;;;;;;;10368223;28;20022;-73
2022/05/20 15:16:14;;;;;;;1.42;0.90;;;;;;;;;;10384058;28;20026;-74
2022/05/20 15:21:23;;;;;;;6.47;1.53;;;;;;;;;;10368890;28;20045;-73
2022/05/20 15:26:25;;;;;;;4.22;0.90;;;;;;;;;;10381738;28;20288;-75
2022/05/20 15:36:49;;;;;;;6.18;1.42;;;;;;;;;;10364239;28;20053;-79
2022/05/20 15:41:49;;;;;;;5.70;1.00;;;;;;;;;;10394154;28;20360;-77
2022/05/20 15:46:49;;;;;;;2.10;1.02;;;;;;;;;;10385752;28;20021;-76
2022/05/20 15:51:50;;;;;;;10.40;1.23;;;;;;;;;;10374564;28;20030;-77
2022/05/20 15:56:51;;;;;;;1.42;0.80;;;;;;;;;;10406167;28;20028;-77
2022/05/20 16:01:51;;;;;;;1.73;1.00;;;;;;;;;;10405093;28;20014;-75
2022/05/20 16:06:51;;;;;;;1.83;0.83;;;;;;;;;;10406993;28;20025;-76
2022/05/20 16:11:52;;;;;;;1.20;0.70;;;;;;;;;;10403433;28;20515;-78
2022/05/20 16:16:53;;;;;;;2.28;0.98;;;;;;;;;;10403772;28;20032;-80
2022/05/20 16:21:53;;;;;;;1.38;0.80;;;;;;;;;;10402826;28;20029;-73
2022/05/20 16:26:54;;;;;;;3.63;0.82;;;;;;;;;;10402682;28;20053;-78
2022/05/20 16:31:54;;;;;;;3.75;0.90;;;;;;;;;;10404107;28;20052;-77
2022/05/20 16:36:54;;;;;;;1.27;0.70;;;;;;;;;;10404092;28;20611;-77
2022/05/20 16:41:54;;;;;;;7.85;1.33;;;;;;;;;;10403833;28;20420;-80
2022/05/20 16:46:55;;;;;;;4.38;1.13;;;;;;;;;;10403781;28;20048;-77
2022/05/20 16:51:59;;;;;;;1.88;1.20;;;;;;;;;;10404087;28;20037;-76
2022/05/20 17:02:20;;;;;;;9.85;1.83;;;;;;;;;;10363411;28;20022;-81
2022/05/20 17:07:20;;;;;;;37.27;20.07;;;;;;;;;;10362837;28;20029;-79
2022/05/20 17:12:21;;;;;;;9.20;2.70;;;;;;;;;;10361407;28;20627;-78
2022/05/20 17:17:22;;;;;;;5.60;2.28;;;;;;;;;;10362273;28;20029;-78
2022/05/20 17:27:41;;;;;;;10.18;2.65;;;;;;;;;;10405842;28;20053;-78
2022/05/20 17:32:43;;;;;;;11.43;2.95;;;;;;;;;;10402083;28;20022;-77
2022/05/20 17:37:43;;;;;;;10.05;4.68;;;;;;;;;;10399389;28;20033;-77
2022/05/20 17:42:43;;;;;;;8.88;4.00;;;;;;;;;;10401623;28;20025;-77
2022/05/20 17:47:44;;;;;;;7.80;3.00;;;;;;;;;;10401008;28;20059;-73
2022/05/20 17:52:44;;;;;;;16.63;4.87;;;;;;;;;;10400131;28;20048;-78
2022/05/20 17:57:44;;;;;;;8.73;4.07;;;;;;;;;;10400151;28;20405;-78
2022/05/20 18:02:45;;;;;;;6.18;2.63;;;;;;;;;;10400795;28;20033;-78
2022/05/20 18:07:45;;;;;;;7.35;1.90;;;;;;;;;;10401567;28;20456;-77
2022/05/20 18:12:45;;;;;;;5.47;2.60;;;;;;;;;;10400366;28;20047;-75
2022/05/20 18:17:48;;;;;;;8.70;2.23;;;;;;;;;;10400012;28;20426;-76
2022/05/20 18:22:49;;;;;;;14.45;2.63;;;;;;;;;;10360753;28;20030;-78
2022/05/20 18:27:49;;;;;;;8.68;3.67;;;;;;;;;;10358115;28;20067;-72
2022/05/20 18:32:49;;;;;;;9.60;3.87;;;;;;;;;;10372690;28;20567;-76
2022/05/20 18:43:10;;;;;;;7.40;3.33;;;;;;;;;;10375240;28;20022;-78
2022/05/20 18:48:11;;;;;;;12.93;4.10;;;;;;;;;;10379657;28;20481;-75
2022/05/20 18:53:12;;;;;;;7.35;3.40;;;;;;;;;;10385218;28;20032;-79
2022/05/20 18:58:12;;;;;;;7.13;2.83;;;;;;;;;;10386229;28;20033;-75
2022/05/20 19:08:32;;;;;;;10.23;5.30;;;;;;;;;;10380919;28;20272;-78
2022/05/20 19:13:32;;;;;;;13.00;4.07;;;;;;;;;;10385752;28;20059;-77
2022/05/20 19:18:33;;;;;;;9.63;3.58;;;;;;;;;;10378920;28;20048;-74
2022/05/20 19:23:36;;;;;;;7.68;3.63;;;;;;;;;;10386932;28;20036;-76
2022/05/20 19:28:37;;;;;;;12.60;3.40;;;;;;;;;;10384897;28;20510;-78
2022/05/20 19:33:38;;;;;;;5.72;2.83;;;;;;;;;;10380292;28;20017;-71
2022/05/20 19:38:38;;;;;;;9.23;2.90;;;;;;;;;;10382049;28;20683;-71
2022/05/20 19:43:41;;;;;;;6.22;3.63;;;;;;;;;;10372867;28;20033;-77
2022/05/20 19:48:44;;;;;;;4.45;2.33;;;;;;;;;;10368179;28;20064;-71
2022/05/20 19:53:44;;;;;;;4.97;1.70;;;;;;;;;;10371050;28;20029;-72
2022/05/20 20:04:03;;;;;;;5.60;2.03;;;;;;;;;;10364781;28;20159;-72
2022/05/20 20:09:04;;;;;;;7.05;2.33;;;;;;;;;;10373108;28;20513;-72
2022/05/20 20:14:05;;;;;;;8.27;2.47;;;;;;;;;;10368121;28;20696;-74
2022/05/20 20:19:07;;;;;;;6.18;2.67;;;;;;;;;;10387282;28;20508;-72
2022/05/20 20:29:27;;;;;;;14.73;3.78;;;;;;;;;;10373891;28;20068;-78
2022/05/20 20:34:28;;;;;;;6.40;2.45;;;;;;;;;;10384843;28;20025;-72
2022/05/20 20:39:28;;;;;;;11.93;3.15;;;;;;;;;;10365175;28;20025;-71
2022/05/20 20:44:29;;;;;;;11.77;3.13;;;;;;;;;;10361787;28;20025;-76
2022/05/20 20:49:29;;;;;;;6.13;3.40;;;;;;;;;;10361902;28;20026;-75
2022/05/20 20:54:29;;;;;;;11.18;4.25;;;;;;;;;;10379765;28;20022;-71
2022/05/20 20:59:30;;;;;;;12.32;3.90;;;;;;;;;;10404915;28;20029;-72
2022/05/20 21:04:32;;;;;;;10.50;3.20;;;;;;;;;;10402695;28;20025;-72
2022/05/20 21:09:32;;;;;;;26.08;4.45;;;;;;;;;;10402867;28;20017;-72
2022/05/20 21:14:32;;;;;;;6.40;2.47;;;;;;;;;;10386113;28;20025;-74
2022/05/20 21:19:33;;;;;;;13.48;3.28;;;;;;;;;;10402696;28;20535;-72
2022/05/20 21:24:33;;;;;;;13.73;3.23;;;;;;;;;;10402481;28;20050;-72
2022/05/20 21:29:34;;;;;;;4.70;1.97;;;;;;;;;;10403750;28;20311;-73
2022/05/20 21:34:35;;;;;;;7.68;2.20;;;;;;;;;;10403429;28;20104;-73
2022/05/20 21:39:35;;;;;;;6.18;2.53;;;;;;;;;;10401802;28;20034;-73
2022/05/20 21:44:35;;;;;;;3.03;1.90;;;;;;;;;;10403155;28;20481;-77
2022/05/20 21:49:37;;;;;;;5.18;1.92;;;;;;;;;;10401535;28;20025;-71
2022/05/20 21:54:38;;;;;;;3.25;2.00;;;;;;;;;;10401522;28;20045;-72
2022/05/20 21:59:38;;;;;;;2.92;1.50;;;;;;;;;;10401299;28;20029;-76
2022/05/20 22:09:58;;;;;;;3.85;1.52;;;;;;;;;;10402362;28;20417;-71
2022/05/20 22:14:58;;;;;;;1.35;1.15;;;;;;;;;;10400688;28;20021;-70
2022/05/20 22:19:59;;;;;;;1.90;1.03;;;;;;;;;;10400939;28;20599;-75
2022/05/20 22:24:59;;;;;;;1.80;1.33;;;;;;;;;;10401042;28;20132;-76
2022/05/20 22:30:00;;;;;;;2.47;1.20;;;;;;;;;;10400345;28;20108;-74
2022/05/20 22:35:01;;;;;;;1.60;1.00;;;;;;;;;;10400330;28;20040;-70
2022/05/20 22:40:01;;;;;;;2.50;1.42;;;;;;;;;;10400391;28;20461;-71
2022/05/20 22:45:02;;;;;;;1.77;1.23;;;;;;;;;;10400719;28;20095;-72
2022/05/20 22:50:03;;;;;;;2.00;1.10;;;;;;;;;;10402884;28;20039;-73
2022/05/20 23:00:23;;;;;;;2.65;1.15;;;;;;;;;;10411135;28;20029;-74
2022/05/20 23:05:24;;;;;;;1.65;1.20;;;;;;;;;;10400830;28;20033;-75
2022/05/20 23:10:24;;;;;;;1.55;1.38;;;;;;;;;;10400053;28;20045;-73
2022/05/20 23:15:25;;;;;;;3.50;1.02;;;;;;;;;;10405683;28;20083;-74
2022/05/20 23:20:25;;;;;;;9.82;1.58;;;;;;;;;;10407144;28;20013;-76
2022/05/20 23:25:25;;;;;;;6.63;2.10;;;;;;;;;;10407105;28;20087;-71
2022/05/20 23:30:26;;;;;;;3.50;2.10;;;;;;;;;;10407282;28;20057;-76
2022/05/20 23:35:28;;;;;;;2.75;1.20;;;;;;;;;;10406593;28;20128;-76
2022/05/20 23:40:28;;;;;;;9.52;1.70;;;;;;;;;;10406714;28;20021;-77
2022/05/20 23:45:29;;;;;;;5.72;1.60;;;;;;;;;;10408182;28;20476;-72
2022/05/20 23:50:29;;;;;;;2.20;1.27;;;;;;;;;;10406628;28;20029;-73
